createdAt,value
2023-04-28T00:00:24.805Z,1502.00
2023-04-28T00:01:24.781Z,1501.00
2023-04-28T00:02:24.870Z,1491.00
2023-04-28T00:03:24.797Z,1489.00
2023-04-28T00:04:25.302Z,1486.00
2023-04-28T00:05:24.803Z,1489.00
2023-04-28T00:06:24.684Z,1493.00
2023-04-28T00:07:24.664Z,1486.00
2023-04-28T00:08:24.635Z,1491.00
2023-04-28T00:09:24.620Z,1488.00
2023-04-28T00:10:24.599Z,1487.00
2023-04-28T00:11:24.565Z,1488.00
2023-04-28T00:12:24.566Z,1497.00
2023-04-28T00:13:24.532Z,1498.00
2023-04-28T00:14:24.503Z,1497.00
2023-04-28T00:15:24.491Z,1492.00
2023-04-28T00:16:24.543Z,1482.00
2023-04-28T00:17:24.546Z,1491.00
2023-04-28T00:18:24.468Z,1492.00
2023-04-28T00:19:24.407Z,1494.00
2023-04-28T00:20:24.383Z,1493.00
2023-04-28T00:21:24.379Z,1491.00
2023-04-28T00:22:24.357Z,1501.00
2023-04-28T00:23:24.330Z,1507.00
2023-04-28T00:24:24.311Z,1507.00
2023-04-28T00:25:24.304Z,1514.00
2023-04-28T00:26:24.302Z,1510.00
2023-04-28T00:27:24.266Z,1517.00
2023-04-28T00:28:33.453Z,1515.00
2023-04-28T00:29:25.208Z,1516.00
2023-04-28T00:30:24.191Z,1516.00
2023-04-28T00:31:24.200Z,1516.00
2023-04-28T00:32:24.186Z,1517.00
2023-04-28T00:33:24.129Z,1520.00
2023-04-28T00:34:24.106Z,1517.00
2023-04-28T00:35:24.080Z,1516.00
2023-04-28T00:36:24.058Z,1523.00
2023-04-28T00:37:24.035Z,1523.00
2023-04-28T00:38:24.008Z,1518.00
2023-04-28T00:39:23.996Z,1514.00
2023-04-28T00:40:23.976Z,1501.00
2023-04-28T00:41:23.940Z,1498.00
2023-04-28T00:42:23.921Z,1449.00
2023-04-28T00:43:23.928Z,1489.00
2023-04-28T00:44:23.892Z,1500.00
2023-04-28T00:45:23.900Z,1498.00
2023-04-28T00:46:23.893Z,1488.00
2023-04-28T00:47:23.858Z,1491.00
2023-04-28T00:48:23.845Z,1491.00
2023-04-28T00:49:23.785Z,1486.00
2023-04-28T00:50:23.776Z,1488.00
2023-04-28T00:51:23.752Z,1481.00
2023-04-28T00:52:23.740Z,1481.00
2023-04-28T00:53:23.722Z,1474.00
2023-04-28T00:54:23.702Z,1489.00
2023-04-28T00:55:23.691Z,1494.00
2023-04-28T00:56:23.675Z,1483.00
2023-04-28T00:57:23.655Z,1486.00
2023-04-28T00:58:23.625Z,1485.00
2023-04-28T00:59:23.625Z,1484.00
2023-04-28T01:00:23.590Z,1485.00
2023-04-28T01:01:23.603Z,1483.00
2023-04-28T01:02:23.732Z,1483.00
2023-04-28T01:03:23.612Z,1485.00
2023-04-28T01:04:23.627Z,1480.00
2023-04-28T01:05:23.520Z,1483.00
2023-04-28T01:06:23.487Z,1479.00
2023-04-28T01:07:23.471Z,1471.00
2023-04-28T01:08:23.451Z,1478.00
2023-04-28T01:09:23.424Z,1481.00
2023-04-28T01:10:23.403Z,1491.00
2023-04-28T01:11:23.387Z,1493.00
2023-04-28T01:12:23.363Z,1482.00
2023-04-28T01:13:23.339Z,1483.00
2023-04-28T01:14:23.316Z,1483.00
2023-04-28T01:15:23.306Z,1486.00
2023-04-28T01:16:23.320Z,1492.00
2023-04-28T01:17:23.278Z,1492.00
2023-04-28T01:18:23.263Z,1493.00
2023-04-28T01:19:23.261Z,1493.00
2023-04-28T01:20:23.245Z,1492.00
2023-04-28T01:21:23.241Z,1490.00
2023-04-28T01:22:23.228Z,1491.00
2023-04-28T01:23:23.204Z,1490.00
2023-04-28T01:24:23.214Z,1489.00
2023-04-28T01:25:23.196Z,1490.00
2023-04-28T01:26:23.164Z,1494.00
2023-04-28T01:27:23.137Z,1494.00
2023-04-28T01:28:23.119Z,1495.00
2023-04-28T01:29:24.074Z,1492.00
2023-04-28T01:30:23.098Z,1490.00
2023-04-28T01:31:23.087Z,1490.00
2023-04-28T01:32:23.079Z,1491.00
2023-04-28T01:33:23.033Z,1492.00
2023-04-28T01:34:23.050Z,1492.00
2023-04-28T01:35:23.022Z,1493.00
2023-04-28T01:36:23.014Z,1493.00
2023-04-28T01:37:22.997Z,1497.00
2023-04-28T01:38:22.987Z,1493.00
2023-04-28T01:39:22.977Z,1485.00
2023-04-28T01:40:22.950Z,1488.00
2023-04-28T01:41:22.931Z,1481.00
2023-04-28T01:42:22.952Z,1477.00
2023-04-28T01:43:22.977Z,1474.00
2023-04-28T01:44:22.918Z,1474.00
2023-04-28T01:45:22.903Z,1477.00
2023-04-28T01:46:22.946Z,1481.00
2023-04-28T01:47:22.929Z,1479.00
2023-04-28T01:48:22.877Z,1472.00
2023-04-28T01:49:22.873Z,1467.00
2023-04-28T01:50:22.869Z,1459.00
2023-04-28T01:51:22.827Z,1456.00
2023-04-28T01:52:22.820Z,1454.00
2023-04-28T01:53:22.811Z,1462.00
2023-04-28T01:54:22.807Z,1467.00
2023-04-28T01:55:22.775Z,1465.00
2023-04-28T01:56:22.756Z,1457.00
2023-04-28T01:57:22.755Z,1459.00
2023-04-28T01:58:22.712Z,1458.00
2023-04-28T01:59:22.699Z,1457.00
2023-04-28T02:00:22.687Z,1458.00
2023-04-28T02:01:22.733Z,1453.00
2023-04-28T02:02:22.721Z,1460.00
2023-04-28T02:03:22.808Z,1461.00
2023-04-28T02:04:22.736Z,1459.00
2023-04-28T02:05:22.569Z,1459.00
2023-04-28T02:06:22.556Z,1460.00
2023-04-28T02:07:22.539Z,1463.00
2023-04-28T02:08:22.518Z,1466.00
2023-04-28T02:09:22.499Z,1467.00
2023-04-28T02:10:22.538Z,1468.00
2023-04-28T02:11:22.454Z,1466.00
2023-04-28T02:12:22.436Z,1468.00
2023-04-28T02:13:22.416Z,1466.00
2023-04-28T02:14:22.421Z,1453.00
2023-04-28T02:15:22.392Z,1454.00
2023-04-28T02:16:22.402Z,1451.00
2023-04-28T02:17:22.451Z,1451.00
2023-04-28T02:18:22.346Z,1446.00
2023-04-28T02:19:22.333Z,1440.00
2023-04-28T02:20:22.315Z,1435.00
2023-04-28T02:21:22.288Z,1430.00
2023-04-28T02:22:22.266Z,1423.00
2023-04-28T02:23:22.252Z,1422.00
2023-04-28T02:24:22.234Z,1421.00
2023-04-28T02:25:22.226Z,1422.00
2023-04-28T02:26:22.215Z,1423.00
2023-04-28T02:27:22.199Z,1422.00
2023-04-28T02:28:22.182Z,1427.00
2023-04-28T02:29:22.170Z,1429.00
2023-04-28T02:30:22.151Z,1429.00
2023-04-28T02:31:22.152Z,1432.00
2023-04-28T02:32:22.269Z,1430.00
2023-04-28T02:33:22.097Z,1427.00
2023-04-28T02:34:22.075Z,1423.00
2023-04-28T02:35:22.064Z,1421.00
2023-04-28T02:36:22.038Z,1419.00
2023-04-28T02:37:22.039Z,1415.00
2023-04-28T02:38:22.002Z,1409.00
2023-04-28T02:39:21.999Z,1409.00
2023-04-28T02:40:21.973Z,1403.00
2023-04-28T02:41:21.949Z,1401.00
2023-04-28T02:42:21.925Z,1404.00
2023-04-28T02:43:21.910Z,1403.00
2023-04-28T02:44:21.900Z,1404.00
2023-04-28T02:45:21.886Z,1400.00
2023-04-28T02:46:21.881Z,1399.00
2023-04-28T02:47:21.851Z,1399.00
2023-04-28T02:48:21.818Z,1404.00
2023-04-28T02:49:21.803Z,1403.00
2023-04-28T02:50:21.797Z,1399.00
2023-04-28T02:51:21.805Z,1395.00
2023-04-28T02:52:21.775Z,1392.00
2023-04-28T02:53:21.756Z,1395.00
2023-04-28T02:54:21.742Z,1391.00
2023-04-28T02:55:21.728Z,1392.00
2023-04-28T02:56:21.709Z,1392.00
2023-04-28T02:57:21.687Z,1391.00
2023-04-28T02:58:21.659Z,1392.00
2023-04-28T02:59:21.629Z,1392.00
2023-04-28T03:00:21.635Z,1390.00
2023-04-28T03:01:21.626Z,1390.00
2023-04-28T03:02:21.599Z,1397.00
2023-04-28T03:03:21.640Z,1402.00
2023-04-28T03:04:21.742Z,1405.00
2023-04-28T03:05:21.512Z,1404.00
2023-04-28T03:06:21.490Z,1398.00
2023-04-28T03:07:21.472Z,1390.00
2023-04-28T03:08:21.452Z,1387.00
2023-04-28T03:09:21.426Z,1384.00
2023-04-28T03:10:21.426Z,1384.00
2023-04-28T03:11:21.384Z,1384.00
2023-04-28T03:12:21.357Z,1383.00
2023-04-28T03:13:21.346Z,1383.00
2023-04-28T03:14:21.330Z,1381.00
2023-04-28T03:15:21.301Z,1383.00
2023-04-28T03:16:21.351Z,1385.00
2023-04-28T03:17:21.302Z,1385.00
2023-04-28T03:18:21.258Z,1387.00
2023-04-28T03:19:21.239Z,1386.00
2023-04-28T03:20:21.233Z,1387.00
2023-04-28T03:21:21.199Z,1383.00
2023-04-28T03:22:21.199Z,1384.00
2023-04-28T03:23:21.169Z,1383.00
2023-04-28T03:24:21.143Z,1380.00
2023-04-28T03:25:21.150Z,1374.00
2023-04-28T03:26:21.104Z,1369.00
2023-04-28T03:27:21.097Z,1368.00
2023-04-28T03:28:21.073Z,1366.00
2023-04-28T03:29:21.046Z,1366.00
2023-04-28T03:30:21.042Z,1364.00
2023-04-28T03:31:21.048Z,1362.00
2023-04-28T03:32:21.005Z,1363.00
2023-04-28T03:33:20.983Z,1362.00
2023-04-28T03:34:20.974Z,1360.00
2023-04-28T03:35:20.963Z,1357.00
2023-04-28T03:36:20.949Z,1356.00
2023-04-28T03:37:20.947Z,1359.00
2023-04-28T03:38:20.913Z,1365.00
2023-04-28T03:39:20.900Z,1365.00
2023-04-28T03:40:20.896Z,1364.00
2023-04-28T03:41:20.878Z,1365.00
2023-04-28T03:42:20.849Z,1363.00
2023-04-28T03:43:20.840Z,1361.00
2023-04-28T03:44:20.841Z,1357.00
2023-04-28T03:45:20.809Z,1357.00
2023-04-28T03:46:20.918Z,1353.00
2023-04-28T03:47:20.771Z,1354.00
2023-04-28T03:48:20.781Z,1354.00
2023-04-28T03:49:20.708Z,1354.00
2023-04-28T03:50:20.701Z,1349.00
2023-04-28T03:51:20.663Z,1347.00
2023-04-28T03:52:20.640Z,1347.00
2023-04-28T03:53:20.606Z,1346.00
2023-04-28T03:54:20.560Z,1349.00
2023-04-28T03:55:20.560Z,1350.00
2023-04-28T03:56:20.521Z,1347.00
2023-04-28T03:57:20.497Z,1346.00
2023-04-28T03:58:20.457Z,1346.00
2023-04-28T03:59:20.440Z,1342.00
2023-04-28T04:00:20.431Z,1340.00
2023-04-28T04:01:20.397Z,1339.00
2023-04-28T04:02:20.426Z,1338.00
2023-04-28T04:03:20.470Z,1342.00
2023-04-28T04:04:20.834Z,1341.00
2023-04-28T04:05:20.321Z,1342.00
2023-04-28T04:06:20.232Z,1336.00
2023-04-28T04:07:20.196Z,1339.00
2023-04-28T04:08:20.174Z,1338.00
2023-04-28T04:09:20.144Z,1336.00
2023-04-28T04:10:20.108Z,1338.00
2023-04-28T04:11:20.083Z,1338.00
2023-04-28T04:12:20.067Z,1335.00
2023-04-28T04:13:20.086Z,1331.00
2023-04-28T04:14:20.016Z,1329.00
2023-04-28T04:15:19.992Z,1321.00
2023-04-28T04:16:20.029Z,1322.00
2023-04-28T04:17:19.948Z,1325.00
2023-04-28T04:18:19.938Z,1328.00
2023-04-28T04:19:19.875Z,1328.00
2023-04-28T04:20:19.860Z,1324.00
2023-04-28T04:21:19.829Z,1320.00
2023-04-28T04:22:19.797Z,1316.00
2023-04-28T04:23:19.810Z,1312.00
2023-04-28T04:24:19.742Z,1310.00
2023-04-28T04:25:20.955Z,1305.00
2023-04-28T04:26:19.681Z,1303.00
2023-04-28T04:27:19.642Z,1303.00
2023-04-28T04:28:19.607Z,1302.00
2023-04-28T04:29:19.586Z,1301.00
2023-04-28T04:30:19.563Z,1302.00
2023-04-28T04:31:19.647Z,1301.00
2023-04-28T04:32:19.496Z,1304.00
2023-04-28T04:33:19.724Z,1306.00
2023-04-28T04:34:19.442Z,1303.00
2023-04-28T04:35:19.437Z,1304.00
2023-04-28T04:36:19.387Z,1306.00
2023-04-28T04:37:19.398Z,1309.00
2023-04-28T04:38:19.338Z,1310.00
2023-04-28T04:39:19.325Z,1307.00
2023-04-28T04:40:19.282Z,1307.00
2023-04-28T04:41:19.263Z,1307.00
2023-04-28T04:42:25.479Z,1302.00
2023-04-28T04:43:20.199Z,1302.00
2023-04-28T04:44:19.515Z,1302.00
2023-04-28T04:45:19.140Z,1300.00
2023-04-28T04:46:19.142Z,1298.00
2023-04-28T04:47:19.094Z,1300.00
2023-04-28T04:48:19.053Z,1300.00
2023-04-28T04:49:19.021Z,1297.00
2023-04-28T04:50:19.000Z,1297.00
2023-04-28T04:51:18.978Z,1298.00
2023-04-28T04:52:18.981Z,1297.00
2023-04-28T04:53:18.933Z,1295.00
2023-04-28T04:54:18.895Z,1297.00
2023-04-28T04:55:18.874Z,1296.00
2023-04-28T04:56:18.852Z,1296.00
2023-04-28T04:57:18.825Z,1294.00
2023-04-28T04:58:18.799Z,1293.00
2023-04-28T04:59:18.757Z,1290.00
2023-04-28T05:00:18.732Z,1287.00
2023-04-28T05:01:18.747Z,1282.00
2023-04-28T05:02:18.825Z,1281.00
2023-04-28T05:03:18.859Z,1281.00
2023-04-28T05:04:19.002Z,1284.00
2023-04-28T05:05:22.027Z,1285.00
2023-04-28T05:06:18.587Z,1284.00
2023-04-28T05:07:18.560Z,1287.00
2023-04-28T05:08:18.537Z,1286.00
2023-04-28T05:09:18.513Z,1285.00
2023-04-28T05:10:18.480Z,1278.00
2023-04-28T05:11:18.462Z,1276.00
2023-04-28T05:12:18.429Z,1276.00
2023-04-28T05:13:18.403Z,1275.00
2023-04-28T05:14:18.695Z,1276.00
2023-04-28T05:15:18.344Z,1276.00
2023-04-28T05:16:18.364Z,1276.00
2023-04-28T05:17:18.303Z,1280.00
2023-04-28T05:18:18.267Z,1283.00
2023-04-28T05:19:18.273Z,1286.00
2023-04-28T05:20:18.234Z,1279.00
2023-04-28T05:21:18.210Z,1069.00
2023-04-28T05:22:18.178Z,953.00
2023-04-28T05:23:18.162Z,893.00
2023-04-28T05:24:18.471Z,831.00
2023-04-28T05:25:18.133Z,864.00
2023-04-28T05:26:18.110Z,870.00
2023-04-28T05:27:18.114Z,870.00
2023-04-28T05:28:21.899Z,871.00
2023-04-28T05:29:18.086Z,880.00
2023-04-28T05:30:18.080Z,915.00
2023-04-28T05:31:18.110Z,850.00
2023-04-28T05:32:18.138Z,882.00
2023-04-28T05:33:19.597Z,881.00
2023-04-28T05:34:18.311Z,900.00
2023-04-28T05:35:18.011Z,939.00
2023-04-28T05:36:17.985Z,955.00
2023-04-28T05:37:18.602Z,966.00
2023-04-28T05:38:17.948Z,973.00
2023-04-28T05:39:17.930Z,997.00
2023-04-28T05:40:17.908Z,978.00
2023-04-28T05:41:17.897Z,932.00
2023-04-28T05:42:17.891Z,925.00
2023-04-28T05:43:17.847Z,914.00
2023-04-28T05:44:18.101Z,906.00
2023-04-28T05:45:18.688Z,902.00
2023-04-28T05:46:29.070Z,896.00
2023-04-28T05:47:18.754Z,890.00
2023-04-28T05:48:17.892Z,886.00
2023-04-28T05:49:17.692Z,896.00
2023-04-28T05:50:17.670Z,892.00
2023-04-28T05:51:17.654Z,891.00
2023-04-28T05:52:17.629Z,884.00
2023-04-28T05:53:17.608Z,889.00
2023-04-28T05:54:17.940Z,890.00
2023-04-28T05:55:17.578Z,881.00
2023-04-28T05:56:17.592Z,873.00
2023-04-28T05:57:17.538Z,873.00
2023-04-28T05:58:17.524Z,880.00
2023-04-28T05:59:17.738Z,912.00
2023-04-28T06:00:17.471Z,924.00
2023-04-28T06:01:17.486Z,934.00
2023-04-28T06:02:17.506Z,940.00
2023-04-28T06:03:17.637Z,946.00
2023-04-28T06:04:17.945Z,958.00
2023-04-28T06:05:17.890Z,976.00
2023-04-28T06:06:17.353Z,1090.00
2023-04-28T06:07:17.415Z,1043.00
2023-04-28T06:08:17.417Z,1032.00
2023-04-28T06:09:17.487Z,1031.00
2023-04-28T06:10:17.251Z,1041.00
2023-04-28T06:11:17.231Z,1045.00
2023-04-28T06:12:17.191Z,1047.00
2023-04-28T06:13:17.164Z,1058.00
2023-04-28T06:14:17.553Z,1088.00
2023-04-28T06:15:17.125Z,1182.00
2023-04-28T06:16:17.162Z,1109.00
2023-04-28T06:17:17.139Z,1106.00
2023-04-28T06:18:17.070Z,1103.00
2023-04-28T06:19:17.062Z,1102.00
2023-04-28T06:20:17.056Z,1112.00
2023-04-28T06:21:17.038Z,1130.00
2023-04-28T06:22:17.050Z,1177.00
2023-04-28T06:23:17.043Z,1199.00
2023-04-28T06:24:17.236Z,1206.00
2023-04-28T06:25:16.978Z,1225.00
2023-04-28T06:26:18.197Z,1255.00
2023-04-28T06:27:16.946Z,1328.00
2023-04-28T06:28:16.924Z,1295.00
2023-04-28T06:29:16.909Z,1283.00
2023-04-28T06:30:16.916Z,1180.00
2023-04-28T06:31:16.929Z,1126.00
2023-04-28T06:32:16.899Z,1097.00
2023-04-28T06:33:16.904Z,1085.00
2023-04-28T06:34:17.043Z,1079.00
2023-04-28T06:35:16.900Z,1087.00
2023-04-28T06:36:16.934Z,1087.00
2023-04-28T06:37:16.920Z,1090.00
2023-04-28T06:38:16.929Z,1097.00
2023-04-28T06:39:16.925Z,1095.00
2023-04-28T06:40:16.926Z,1095.00
2023-04-28T06:41:16.911Z,1119.00
2023-04-28T06:42:16.929Z,1102.00
2023-04-28T06:43:16.919Z,1038.00
2023-04-28T06:44:17.125Z,1034.00
2023-04-28T06:45:16.973Z,1033.00
2023-04-28T06:46:16.961Z,1011.00
2023-04-28T06:47:16.920Z,1008.00
2023-04-28T06:48:16.908Z,995.00
2023-04-28T06:49:16.925Z,1002.00
2023-04-28T06:50:16.909Z,1013.00
2023-04-28T06:51:16.899Z,1125.00
2023-04-28T06:52:16.931Z,1103.00
2023-04-28T06:53:16.922Z,1109.00
2023-04-28T06:54:17.255Z,1074.00
2023-04-28T06:55:16.922Z,1051.00
2023-04-28T06:56:16.921Z,1039.00
2023-04-28T06:57:16.944Z,1035.00
2023-04-28T06:58:16.914Z,979.00
2023-04-28T06:59:16.912Z,976.00
2023-04-28T07:00:16.913Z,960.00
2023-04-28T07:01:17.153Z,961.00
2023-04-28T07:02:17.003Z,951.00
2023-04-28T07:03:17.016Z,949.00
2023-04-28T07:04:17.249Z,950.00
2023-04-28T07:05:16.966Z,958.00
2023-04-28T07:06:16.904Z,970.00
2023-04-28T07:07:16.898Z,976.00
2023-04-28T07:08:16.903Z,1019.00
2023-04-28T07:09:16.890Z,1005.00
2023-04-28T07:10:16.919Z,1004.00
2023-04-28T07:11:16.857Z,1003.00
2023-04-28T07:12:16.848Z,1047.00
2023-04-28T07:13:16.843Z,1028.00
2023-04-28T07:14:17.186Z,1093.00
2023-04-28T07:15:16.864Z,1050.00
2023-04-28T07:16:16.820Z,1048.00
2023-04-28T07:17:16.798Z,1057.00
2023-04-28T07:18:16.908Z,1177.00
2023-04-28T07:19:16.768Z,1184.00
2023-04-28T07:20:16.804Z,1202.00
2023-04-28T07:21:16.766Z,1303.00
2023-04-28T07:22:16.737Z,1144.00
2023-04-28T07:23:16.743Z,1219.00
2023-04-28T07:24:16.869Z,1247.00
2023-04-28T07:25:16.721Z,1394.00
2023-04-28T07:26:16.685Z,1400.00
2023-04-28T07:27:17.672Z,1407.00
2023-04-28T07:28:16.631Z,1460.00
2023-04-28T07:29:16.583Z,1504.00
2023-04-28T07:30:27.260Z,1517.00
2023-04-28T07:31:17.594Z,1539.00
2023-04-28T07:32:16.567Z,1569.00
2023-04-28T07:33:16.485Z,1616.00
2023-04-28T07:34:16.758Z,1644.00
2023-04-28T07:35:16.415Z,1687.00
2023-04-28T07:36:16.448Z,1713.00
2023-04-28T07:37:16.361Z,1738.00
2023-04-28T07:38:16.336Z,1761.00
2023-04-28T07:39:16.297Z,1795.00
2023-04-28T07:40:16.287Z,1864.00
2023-04-28T07:41:16.307Z,1868.00
2023-04-28T07:42:16.311Z,1881.00
2023-04-28T07:43:16.336Z,1900.00
2023-04-28T07:44:16.486Z,1953.00
2023-04-28T07:45:16.375Z,1978.00
2023-04-28T07:46:16.379Z,1990.00
2023-04-28T07:47:16.371Z,2012.00
2023-04-28T07:48:16.449Z,2057.00
2023-04-28T07:49:16.389Z,2069.00
2023-04-28T07:50:16.398Z,2083.00
2023-04-28T07:51:16.399Z,2100.00
2023-04-28T07:52:16.422Z,2131.00
2023-04-28T07:53:16.400Z,2162.00
2023-04-28T07:54:16.660Z,2185.00
2023-04-28T07:55:16.414Z,2214.00
2023-04-28T07:56:16.404Z,2260.00
2023-04-28T07:57:17.158Z,2292.00
2023-04-28T07:58:17.220Z,2318.00
2023-04-28T07:59:16.387Z,2339.00
2023-04-28T08:00:17.141Z,2354.00
2023-04-28T08:01:16.466Z,2428.00
2023-04-28T08:02:16.405Z,2443.00
2023-04-28T08:03:16.452Z,2457.00
2023-04-28T08:04:16.761Z,2488.00
2023-04-28T08:05:16.537Z,2515.00
2023-04-28T08:06:16.275Z,2543.00
2023-04-28T08:07:16.256Z,2577.00
2023-04-28T08:08:16.290Z,2586.00
2023-04-28T08:09:16.217Z,2604.00
2023-04-28T08:10:16.204Z,2623.00
2023-04-28T08:11:16.191Z,2691.00
2023-04-28T08:12:16.171Z,2715.00
2023-04-28T08:13:16.131Z,2737.00
2023-04-28T08:14:16.409Z,2735.00
2023-04-28T08:15:17.295Z,2735.00
2023-04-28T08:16:16.148Z,2155.00
2023-04-28T08:17:16.079Z,2421.00
2023-04-28T08:18:16.104Z,2328.00
2023-04-28T08:19:16.112Z,2378.00
2023-04-28T08:20:16.132Z,2301.00
2023-04-28T08:21:16.137Z,2355.00
2023-04-28T08:22:16.145Z,2382.00
2023-04-28T08:23:16.165Z,2393.00
2023-04-28T08:24:16.429Z,2407.00
2023-04-28T08:25:16.205Z,2395.00
2023-04-28T08:26:16.250Z,2307.00
2023-04-28T08:27:16.264Z,2311.00
2023-04-28T08:28:16.286Z,2340.00
2023-04-28T08:29:17.257Z,2373.00
2023-04-28T08:30:16.258Z,2373.00
2023-04-28T08:31:16.219Z,2371.00
2023-04-28T08:32:16.179Z,2357.00
2023-04-28T08:33:16.211Z,2348.00
2023-04-28T08:34:16.820Z,2337.00
2023-04-28T08:35:16.103Z,2335.00
2023-04-28T08:36:16.075Z,2332.00
2023-04-28T08:37:16.070Z,2327.00
2023-04-28T08:38:16.029Z,2329.00
2023-04-28T08:39:16.649Z,2328.00
2023-04-28T08:40:16.120Z,2322.00
2023-04-28T08:41:17.149Z,2311.00
2023-04-28T08:42:16.185Z,2300.00
2023-04-28T08:43:16.228Z,2289.00
2023-04-28T08:44:16.387Z,2268.00
2023-04-28T08:45:16.314Z,2255.00
2023-04-28T08:46:16.378Z,2244.00
2023-04-28T08:47:16.561Z,2250.00
2023-04-28T08:48:16.452Z,2244.00
2023-04-28T08:49:16.572Z,2231.00
2023-04-28T08:50:16.549Z,2228.00
2023-04-28T08:51:16.582Z,2226.00
2023-04-28T08:52:16.644Z,2215.00
2023-04-28T08:53:16.674Z,2207.00
2023-04-28T08:54:25.523Z,2196.00
2023-04-28T08:55:17.683Z,2193.00
2023-04-28T08:56:16.722Z,2206.00
2023-04-28T08:57:16.674Z,2197.00
2023-04-28T08:58:16.613Z,2206.00
2023-04-28T08:59:16.586Z,2201.00
2023-04-28T09:00:16.552Z,2197.00
2023-04-28T09:01:16.536Z,2215.00
2023-04-28T09:02:16.554Z,2200.00
2023-04-28T09:03:16.500Z,2121.00
2023-04-28T09:04:16.764Z,2145.00
2023-04-28T09:05:16.704Z,2188.00
2023-04-28T09:06:17.359Z,2208.00
2023-04-28T09:07:16.360Z,2199.00
2023-04-28T09:08:16.346Z,2187.00
2023-04-28T09:09:16.322Z,2168.00
2023-04-28T09:10:16.320Z,2171.00
2023-04-28T09:11:16.303Z,2169.00
2023-04-28T09:12:16.282Z,2180.00
2023-04-28T09:13:17.246Z,2174.00
2023-04-28T09:14:17.377Z,2164.00
2023-04-28T09:15:16.291Z,2157.00
2023-04-28T09:16:16.284Z,2144.00
2023-04-28T09:17:16.251Z,2149.00
2023-04-28T09:18:16.232Z,2146.00
2023-04-28T09:19:16.223Z,2202.00
2023-04-28T09:20:16.850Z,1950.00
2023-04-28T09:21:17.228Z,1616.00
2023-04-28T09:22:26.432Z,1611.00
2023-04-28T09:23:17.189Z,1596.00
2023-04-28T09:24:16.358Z,1618.00
2023-04-28T09:25:16.171Z,1647.00
2023-04-28T09:26:16.130Z,1749.00
2023-04-28T09:27:17.778Z,1848.00
2023-04-28T09:28:16.755Z,1859.00
2023-04-28T09:29:16.063Z,1856.00
2023-04-28T09:30:16.046Z,1866.00
2023-04-28T09:31:16.755Z,1857.00
2023-04-28T09:32:16.031Z,1866.00
2023-04-28T09:33:16.037Z,1876.00
2023-04-28T09:34:16.095Z,1883.00
2023-04-28T09:35:16.673Z,1894.00
2023-04-28T09:36:16.810Z,1923.00
2023-04-28T09:37:16.767Z,1933.00
2023-04-28T09:38:15.840Z,1952.00
2023-04-28T09:39:15.819Z,2018.00
2023-04-28T09:40:15.797Z,2023.00
2023-04-28T09:41:16.259Z,2022.00
2023-04-28T09:42:15.737Z,2022.00
2023-04-28T09:43:21.819Z,2028.00
2023-04-28T09:44:17.115Z,2067.00
2023-04-28T09:45:15.725Z,2065.00
2023-04-28T09:46:15.705Z,2070.00
2023-04-28T09:47:15.659Z,2187.00
2023-04-28T09:48:17.361Z,2164.00
2023-04-28T09:49:15.656Z,2143.00
2023-04-28T09:50:16.323Z,2138.00
2023-04-28T09:51:15.548Z,2146.00
2023-04-28T09:52:15.524Z,2153.00
2023-04-28T09:53:15.784Z,2158.00
2023-04-28T09:54:15.469Z,2163.00
2023-04-28T09:55:15.439Z,2171.00
2023-04-28T09:56:15.403Z,2207.00
2023-04-28T09:57:15.375Z,2221.00
2023-04-28T09:58:15.357Z,2230.00
2023-04-28T09:59:15.314Z,2265.00
2023-04-28T10:00:15.331Z,2297.00
2023-04-28T10:01:15.382Z,2307.00
2023-04-28T10:02:41.082Z,2328.00
2023-04-28T10:03:17.427Z,2360.00
2023-04-28T10:04:16.476Z,2361.00
2023-04-28T10:05:16.427Z,2354.00
2023-04-28T10:06:15.257Z,2355.00
2023-04-28T10:07:15.220Z,2358.00
2023-04-28T10:08:15.240Z,2373.00
2023-04-28T10:09:15.685Z,2389.00
2023-04-28T10:10:15.250Z,2398.00
2023-04-28T10:11:15.822Z,2392.00
2023-04-28T10:12:15.161Z,2356.00
2023-04-28T10:13:15.043Z,1919.00
2023-04-28T10:14:15.014Z,1677.00
2023-04-28T10:15:15.012Z,1494.00
2023-04-28T10:16:15.051Z,1388.00
2023-04-28T10:17:14.986Z,1402.00
2023-04-28T10:18:14.955Z,1428.00
2023-04-28T10:19:14.925Z,1511.00
2023-04-28T10:20:14.954Z,1539.00
2023-04-28T10:21:14.904Z,1554.00
2023-04-28T10:22:14.857Z,1619.00
2023-04-28T10:23:14.854Z,1636.00
2023-04-28T10:24:14.814Z,1639.00
2023-04-28T10:25:14.773Z,1655.00
2023-04-28T10:26:14.757Z,1738.00
2023-04-28T10:27:14.737Z,1771.00
2023-04-28T10:28:14.712Z,1861.00
2023-04-28T10:29:14.682Z,1894.00
2023-04-28T10:30:26.381Z,1896.00
2023-04-28T10:31:15.656Z,1919.00
2023-04-28T10:32:14.602Z,1976.00
2023-04-28T10:33:14.602Z,2034.00
2023-04-28T10:34:14.538Z,2053.00
2023-04-28T10:35:15.248Z,2071.00
2023-04-28T10:36:16.242Z,2117.00
2023-04-28T10:37:14.453Z,2168.00
2023-04-28T10:38:14.443Z,2205.00
2023-04-28T10:39:14.806Z,2237.00
2023-04-28T10:40:14.352Z,2279.00
2023-04-28T10:41:14.480Z,2313.00
2023-04-28T10:42:14.294Z,2346.00
2023-04-28T10:43:14.263Z,2362.00
2023-04-28T10:44:14.227Z,2373.00
2023-04-28T10:45:14.198Z,2392.00
2023-04-28T10:46:14.243Z,2433.00
2023-04-28T10:47:14.137Z,2461.00
2023-04-28T10:48:14.115Z,2454.00
2023-04-28T10:49:14.091Z,2478.00
2023-04-28T10:50:14.083Z,2508.00
2023-04-28T10:51:14.019Z,2551.00
2023-04-28T10:52:13.989Z,2607.00
2023-04-28T10:53:14.335Z,2626.00
2023-04-28T10:54:13.910Z,2670.00
2023-04-28T10:55:22.058Z,2791.00
2023-04-28T10:56:14.826Z,2776.00
2023-04-28T10:57:13.798Z,2779.00
2023-04-28T10:58:13.768Z,2793.00
2023-04-28T10:59:13.768Z,2828.00
2023-04-28T11:00:13.705Z,2865.00
2023-04-28T11:01:13.905Z,2919.00
2023-04-28T11:02:13.746Z,2939.00
2023-04-28T11:03:13.682Z,2961.00
2023-04-28T11:04:14.040Z,2970.00
2023-04-28T11:05:13.721Z,2960.00
2023-04-28T11:06:13.489Z,2968.00
2023-04-28T11:07:13.428Z,2904.00
2023-04-28T11:08:13.393Z,2894.00
2023-04-28T11:09:13.359Z,2900.00
2023-04-28T11:10:13.378Z,2951.00
2023-04-28T11:11:13.291Z,2943.00
2023-04-28T11:12:13.245Z,2935.00
2023-04-28T11:13:13.205Z,2927.00
2023-04-28T11:14:13.169Z,2886.00
2023-04-28T11:15:13.137Z,2863.00
2023-04-28T11:16:13.161Z,2851.00
2023-04-28T11:17:13.129Z,2863.00
2023-04-28T11:18:13.142Z,2850.00
2023-04-28T11:19:13.168Z,2863.00
2023-04-28T11:20:13.180Z,2913.00
2023-04-28T11:21:13.193Z,2904.00
2023-04-28T11:22:13.253Z,2900.00
2023-04-28T11:23:13.263Z,2903.00
2023-04-28T11:24:13.282Z,2902.00
2023-04-28T11:25:13.317Z,2875.00
2023-04-28T11:26:13.351Z,2858.00
2023-04-28T11:27:13.373Z,2786.00
2023-04-28T11:28:13.416Z,2818.00
2023-04-28T11:29:13.460Z,2763.00
2023-04-28T11:30:13.501Z,2809.00
2023-04-28T11:31:13.554Z,2682.00
2023-04-28T11:32:13.611Z,2700.00
2023-04-28T11:33:13.639Z,2743.00
2023-04-28T11:34:13.653Z,2786.00
2023-04-28T11:35:13.700Z,2824.00
2023-04-28T11:36:13.742Z,2809.00
2023-04-28T11:37:13.817Z,2797.00
2023-04-28T11:38:13.813Z,2795.00
2023-04-28T11:39:13.852Z,2803.00
2023-04-28T11:40:13.879Z,2787.00
2023-04-28T11:41:13.920Z,2799.00
2023-04-28T11:42:14.002Z,2777.00
2023-04-28T11:43:14.017Z,2768.00
2023-04-28T11:44:14.072Z,2767.00
2023-04-28T11:45:14.089Z,2785.00
2023-04-28T11:46:14.169Z,2735.00
2023-04-28T11:47:14.184Z,2742.00
2023-04-28T11:48:14.230Z,2732.00
2023-04-28T11:49:14.287Z,2708.00
2023-04-28T11:50:14.295Z,2736.00
2023-04-28T11:51:14.310Z,2737.00
2023-04-28T11:52:14.343Z,2735.00
2023-04-28T11:53:14.353Z,2736.00
2023-04-28T11:54:14.373Z,2731.00
2023-04-28T11:55:14.396Z,2724.00
2023-04-28T11:56:14.396Z,2732.00
2023-04-28T11:57:14.606Z,2731.00
2023-04-28T11:58:14.415Z,2711.00
2023-04-28T11:59:14.454Z,2636.00
2023-04-28T12:00:14.544Z,2680.00
2023-04-28T12:01:14.510Z,2696.00
2023-04-28T12:02:14.531Z,2694.00
2023-04-28T12:03:14.585Z,2673.00
2023-04-28T12:04:14.483Z,2677.00
2023-04-28T12:05:14.455Z,2667.00
2023-04-28T12:06:14.450Z,2640.00
2023-04-28T12:07:14.468Z,2638.00